createdAt,value
2018-04-22T00:01:36.675Z,13.07
2018-04-22T00:04:03.906Z,13.80
2018-04-22T00:06:30.381Z,12.97
2018-04-22T00:08:56.810Z,13.90
2018-04-22T00:11:24.030Z,14.03
2018-04-22T00:13:50.446Z,13.30
2018-04-22T00:16:16.890Z,13.43
2018-04-22T00:18:43.334Z,14.10
2018-04-22T00:21:09.786Z,14.43
2018-04-22T00:23:36.985Z,13.77
2018-04-22T00:26:03.513Z,13.50
2018-04-22T00:28:29.928Z,14.63
2018-04-22T00:30:56.377Z,15.57
2018-04-22T00:33:22.814Z,14.30
2018-04-22T00:35:49.227Z,14.30
2018-04-22T00:38:15.694Z,15.00
2018-04-22T00:40:42.152Z,12.70
2018-04-22T00:43:08.635Z,13.67
2018-04-22T00:45:35.087Z,15.00
2018-04-22T00:48:01.559Z,14.83
2018-04-22T00:50:28.001Z,16.00
2018-04-22T00:52:55.209Z,14.70
2018-04-22T00:55:21.642Z,13.60
2018-04-22T00:57:48.052Z,15.70
2018-04-22T01:00:14.509Z,16.47
2018-04-22T01:02:40.958Z,16.53
2018-04-22T01:05:07.450Z,18.90
2018-04-22T01:07:34.605Z,17.03
2018-04-22T01:10:01.796Z,16.77
2018-04-22T01:12:28.213Z,14.77
2018-04-22T01:14:54.690Z,16.27
2018-04-22T01:17:21.110Z,17.10
2018-04-22T01:19:47.570Z,17.83
2018-04-22T01:22:14.008Z,17.87
2018-04-22T01:24:41.220Z,17.57
2018-04-22T01:27:07.712Z,14.90
2018-04-22T01:29:34.169Z,17.80
2018-04-22T01:32:00.606Z,17.20
2018-04-22T01:34:27.083Z,20.07
2018-04-22T01:36:53.512Z,15.77
2018-04-22T01:39:19.957Z,17.03
2018-04-22T01:41:46.457Z,19.27
2018-04-22T01:44:12.889Z,17.63
2018-04-22T01:46:39.309Z,19.43
2018-04-22T01:49:05.759Z,17.53
2018-04-22T01:51:32.225Z,17.23
2018-04-22T01:53:58.651Z,16.13
2018-04-22T01:56:25.105Z,18.07
2018-04-22T01:58:52.284Z,16.50
2018-04-22T02:01:18.745Z,16.37
2018-04-22T02:03:45.174Z,17.23
2018-04-22T02:06:11.635Z,18.90
2018-04-22T02:08:38.118Z,16.73
2018-04-22T02:11:04.565Z,16.80
2018-04-22T02:13:31.087Z,19.23
2018-04-22T02:15:57.551Z,17.70
2018-04-22T02:18:24.064Z,15.43
2018-04-22T02:20:50.566Z,17.27
2018-04-22T02:23:17.062Z,14.90
2018-04-22T02:25:43.592Z,16.90
2018-04-22T02:28:10.083Z,17.37
2018-04-22T02:30:36.599Z,17.43
2018-04-22T02:33:03.847Z,18.03
2018-04-22T02:35:30.365Z,17.73
2018-04-22T02:37:56.860Z,15.33
2018-04-22T02:40:23.378Z,16.20
2018-04-22T02:42:50.648Z,18.43
2018-04-22T02:45:17.153Z,17.27
2018-04-22T02:47:43.675Z,18.63
2018-04-22T02:50:10.185Z,17.90
2018-04-22T02:52:36.666Z,18.43
2018-04-22T02:55:03.239Z,18.33
2018-04-22T02:57:29.938Z,18.80
2018-04-22T02:59:57.197Z,18.33
2018-04-22T03:02:23.698Z,18.57
2018-04-22T03:04:50.178Z,19.33
2018-04-22T03:07:16.671Z,19.80
2018-04-22T03:09:44.372Z,18.47
2018-04-22T03:12:10.857Z,18.63
2018-04-22T03:14:37.344Z,18.03
2018-04-22T03:17:03.829Z,18.43
2018-04-22T03:19:30.329Z,19.63
2018-04-22T03:21:56.855Z,18.93
2018-04-22T03:24:23.365Z,18.20
2018-04-22T03:26:50.621Z,19.20
2018-04-22T03:29:17.109Z,18.70
2018-04-22T03:31:44.551Z,18.43
2018-04-22T03:34:11.043Z,17.63
2018-04-22T03:36:37.543Z,18.37
2018-04-22T03:39:04.155Z,17.17
2018-04-22T03:41:30.636Z,19.27
2018-04-22T03:43:57.194Z,19.07
2018-04-22T03:46:24.434Z,18.27
2018-04-22T03:48:51.712Z,20.33
2018-04-22T03:51:18.201Z,20.20
2018-04-22T03:53:44.721Z,20.70
2018-04-22T03:56:11.223Z,20.60
2018-04-22T03:58:37.720Z,18.93
2018-04-22T04:01:06.467Z,17.80
2018-04-22T04:03:32.947Z,21.13
2018-04-22T04:05:59.432Z,20.43
2018-04-22T04:08:25.930Z,22.20
2018-04-22T04:10:53.177Z,22.20
2018-04-22T04:13:26.622Z,19.03
2018-04-22T04:15:53.102Z,20.63
2018-04-22T04:21:39.590Z,19.60
2018-04-22T04:24:27.132Z,20.10
2018-04-22T04:27:18.453Z,17.97
2018-04-22T04:29:45.033Z,21.10
2018-04-22T04:32:11.565Z,19.80
2018-04-22T04:34:38.078Z,20.27
2018-04-22T04:37:04.572Z,19.70
2018-04-22T04:39:31.126Z,20.03
2018-04-22T04:42:07.705Z,20.63
2018-04-22T04:44:39.808Z,22.27
2018-04-22T04:47:07.044Z,19.67
2018-04-22T04:49:34.268Z,21.27
2018-04-22T04:52:00.774Z,20.67
2018-04-22T04:54:27.301Z,22.43
2018-04-22T04:56:53.846Z,24.20
2018-04-22T04:59:20.363Z,21.90
2018-04-22T05:01:46.882Z,22.70
2018-04-22T05:04:14.137Z,24.63
2018-04-22T05:06:40.635Z,23.03
2018-04-22T05:09:07.154Z,24.20
2018-04-22T05:11:33.648Z,26.47
2018-04-22T05:14:00.883Z,25.33
2018-04-22T05:16:27.390Z,24.10
2018-04-22T05:18:53.900Z,23.60
2018-04-22T05:21:20.405Z,24.00
2018-04-22T05:23:47.662Z,22.40
2018-04-22T05:26:14.902Z,23.87
2018-04-22T05:28:42.159Z,23.53
2018-04-22T05:31:09.401Z,22.30
2018-04-22T05:33:35.887Z,22.17
2018-04-22T05:36:02.387Z,23.27
2018-04-22T05:38:28.873Z,24.07
2018-04-22T05:40:55.626Z,25.53
2018-04-22T05:43:22.117Z,25.87
2018-04-22T05:45:48.631Z,24.10
2018-04-22T05:48:16.027Z,24.17
2018-04-22T05:50:42.525Z,24.07
2018-04-22T05:53:09.747Z,21.63
2018-04-22T05:55:36.206Z,20.90
2018-04-22T05:58:03.425Z,21.07
2018-04-22T06:00:29.913Z,21.33
2018-04-22T06:03:12.335Z,22.37
2018-04-22T06:05:38.865Z,24.00
2018-04-22T06:08:05.345Z,26.60
2018-04-22T06:10:31.837Z,25.60
2018-04-22T06:12:58.292Z,27.40
2018-04-22T06:15:24.726Z,27.43
2018-04-22T06:17:51.140Z,27.70
2018-04-22T06:20:17.560Z,28.33
2018-04-22T06:22:43.963Z,26.93
2018-04-22T06:25:10.391Z,31.87
2018-04-22T06:27:36.824Z,34.03
2018-04-22T06:30:03.290Z,33.27
2018-04-22T06:32:29.694Z,33.97
2018-04-22T06:34:56.122Z,32.20
2018-04-22T06:37:22.539Z,34.00
2018-04-22T06:39:48.957Z,35.33
2018-04-22T06:42:15.364Z,35.20
2018-04-22T06:44:41.782Z,33.63
2018-04-22T06:47:08.941Z,34.47
2018-04-22T06:49:35.358Z,34.33
2018-04-22T06:52:02.525Z,35.90
2018-04-22T06:54:28.945Z,38.10
2018-04-22T06:56:55.357Z,36.17
2018-04-22T06:59:22.524Z,41.43
2018-04-22T07:01:48.928Z,43.10
2018-04-22T07:04:15.350Z,40.90
2018-04-22T07:06:41.777Z,41.40
2018-04-22T07:09:08.202Z,42.07
2018-04-22T07:11:34.632Z,44.23
2018-04-22T07:14:01.074Z,43.13
2018-04-22T07:16:27.495Z,42.93
2018-04-22T07:18:53.898Z,44.70
2018-04-22T07:21:21.077Z,43.30
2018-04-22T07:23:47.486Z,43.00
2018-04-22T07:26:13.917Z,43.10
2018-04-22T07:28:41.101Z,42.70
2018-04-22T07:31:07.527Z,42.23
2018-04-22T07:33:33.938Z,40.20
2018-04-22T07:36:00.344Z,43.43
2018-04-22T07:38:27.524Z,41.97
2018-04-22T07:40:54.684Z,41.23
2018-04-22T07:43:21.107Z,41.87
2018-04-22T07:45:48.283Z,43.00
2018-04-22T07:48:14.687Z,43.27
2018-04-22T07:50:41.108Z,46.17
2018-04-22T07:53:08.360Z,48.17
2018-04-22T07:55:35.562Z,53.33
2018-04-22T07:58:02.048Z,64.00
2018-04-22T08:00:29.206Z,80.90
2018-04-22T08:02:55.640Z,80.10
2018-04-22T08:05:22.070Z,109.13
2018-04-22T08:07:49.259Z,121.37
2018-04-22T08:10:16.731Z,128.97
2018-04-22T08:12:42.170Z,129.90
2018-04-22T08:15:08.705Z,112.07
2018-04-22T08:17:35.176Z,109.57
2018-04-22T08:20:01.648Z,102.10
2018-04-22T08:22:28.113Z,106.93
2018-04-22T08:24:56.047Z,76.70
2018-04-22T08:27:22.501Z,90.77
2018-04-22T08:29:48.973Z,83.27
2018-04-22T08:32:16.186Z,99.63
2018-04-22T08:34:42.709Z,86.97
2018-04-22T08:37:09.174Z,79.77
2018-04-22T08:39:35.666Z,86.70
2018-04-22T08:42:02.100Z,75.17
2018-04-22T08:44:28.579Z,77.13
2018-04-22T08:49:49.207Z,70.73
2018-04-22T08:52:16.398Z,62.10
2018-04-22T08:54:42.874Z,66.97
2018-04-22T08:57:09.346Z,62.20
2018-04-22T08:59:35.802Z,59.83
2018-04-22T09:02:02.280Z,56.80
2018-04-22T09:04:28.675Z,45.03
2018-04-22T09:06:55.092Z,53.17
2018-04-22T09:09:21.579Z,51.27
2018-04-22T09:11:48.021Z,45.47
2018-04-22T09:14:15.223Z,42.83
2018-04-22T09:16:41.669Z,42.27
2018-04-22T09:19:08.107Z,38.77
2018-04-22T09:21:34.579Z,36.40
2018-04-22T09:24:01.851Z,36.67
2018-04-22T09:26:28.319Z,33.77
2018-04-22T09:28:54.762Z,32.53
2018-04-22T09:31:21.196Z,31.07
2018-04-22T09:33:47.621Z,26.33
2018-04-22T09:36:14.046Z,26.20
2018-04-22T09:38:40.464Z,27.77
2018-04-22T09:41:06.900Z,23.93
2018-04-22T09:43:33.323Z,24.40
2018-04-22T09:46:00.551Z,24.53
2018-04-22T09:48:26.944Z,23.43
2018-04-22T09:50:53.367Z,23.13
2018-04-22T09:53:19.806Z,22.67
2018-04-22T09:55:46.251Z,19.63
2018-04-22T09:58:12.680Z,18.10
2018-04-22T10:00:39.140Z,17.07
2018-04-22T10:03:06.458Z,16.57
2018-04-22T10:05:39.032Z,16.30
2018-04-22T10:08:05.469Z,16.00
2018-04-22T10:10:31.890Z,15.60
2018-04-22T10:12:58.328Z,13.90
2018-04-22T10:15:24.758Z,13.07
2018-04-22T10:17:51.186Z,13.03
2018-04-22T10:20:17.602Z,13.40
2018-04-22T10:22:44.782Z,12.87
2018-04-22T10:25:11.206Z,11.57
2018-04-22T10:27:37.655Z,10.43
2018-04-22T10:30:04.101Z,10.17
2018-04-22T10:32:30.531Z,12.33
2018-04-22T10:34:56.969Z,10.87
2018-04-22T10:37:23.432Z,10.43
2018-04-22T10:39:49.855Z,10.40
2018-04-22T10:42:16.287Z,8.63
2018-04-22T10:44:42.714Z,7.33
2018-04-22T10:47:09.158Z,6.93
2018-04-22T10:49:36.324Z,7.80
2018-04-22T10:52:02.761Z,8.13
2018-04-22T10:54:29.919Z,8.13
2018-04-22T10:56:57.122Z,8.77
2018-04-22T10:59:23.551Z,8.47
2018-04-22T11:01:49.957Z,7.80
2018-04-22T11:04:16.380Z,7.67
2018-04-22T11:06:43.578Z,5.87
2018-04-22T11:09:09.995Z,5.67
2018-04-22T11:11:36.401Z,6.00
2018-04-22T11:14:02.857Z,3.83
2018-04-22T11:16:29.272Z,2.80
2018-04-22T11:18:55.714Z,2.80
2018-04-22T11:21:22.143Z,2.93
2018-04-22T11:23:48.590Z,2.73
2018-04-22T11:26:15.027Z,2.70
2018-04-22T11:28:41.461Z,2.80
2018-04-22T11:31:07.903Z,2.77
2018-04-22T11:33:34.322Z,2.77
2018-04-22T11:36:00.770Z,2.97
2018-04-22T11:38:27.204Z,2.70
2018-04-22T11:40:53.607Z,2.80
2018-04-22T11:43:20.030Z,2.63
2018-04-22T11:45:47.212Z,2.60
2018-04-22T11:48:13.640Z,2.83
2018-04-22T11:50:40.063Z,2.77
2018-04-22T11:53:06.496Z,2.60
2018-04-22T11:55:32.932Z,2.57
2018-04-22T11:57:59.358Z,2.63
2018-04-22T12:00:25.855Z,2.90
2018-04-22T12:02:52.243Z,2.50
2018-04-22T12:05:18.696Z,2.80
2018-04-22T12:07:45.139Z,2.83
2018-04-22T12:10:11.568Z,2.80
2018-04-22T12:12:38.014Z,2.90
2018-04-22T12:15:04.475Z,2.90
2018-04-22T12:17:31.659Z,2.87
2018-04-22T12:19:58.092Z,2.70
2018-04-22T12:22:24.507Z,2.80
2018-04-22T12:24:50.946Z,3.07
2018-04-22T12:27:17.369Z,2.70
2018-04-22T12:29:44.524Z,2.90
2018-04-22T12:32:11.684Z,2.80
2018-04-22T12:34:38.100Z,2.80
2018-04-22T12:37:04.529Z,2.90
2018-04-22T12:39:30.952Z,3.00
2018-04-22T12:41:57.374Z,2.63
2018-04-22T12:44:23.793Z,2.80
2018-04-22T12:46:50.212Z,3.13
2018-04-22T12:49:16.651Z,2.73
2018-04-22T12:51:43.077Z,2.63
2018-04-22T12:54:09.502Z,2.93
2018-04-22T12:56:35.933Z,2.50
2018-04-22T12:59:02.339Z,2.73
2018-04-22T13:01:29.484Z,2.90
2018-04-22T13:03:56.644Z,2.80
2018-04-22T13:06:23.820Z,2.70
2018-04-22T13:08:50.255Z,36.63
2018-04-22T13:11:16.717Z,24.60
2018-04-22T13:13:43.142Z,4.00
2018-04-22T13:16:09.559Z,2.90
2018-04-22T13:18:35.994Z,3.53
2018-04-22T13:21:02.437Z,3.03
2018-04-22T13:23:28.862Z,3.60
2018-04-22T13:25:55.285Z,3.33
2018-04-22T13:30:45.726Z,3.07
2018-04-22T13:33:12.133Z,3.70
2018-04-22T13:35:38.560Z,3.43
2018-04-22T13:38:04.993Z,3.73
2018-04-22T13:40:31.413Z,3.57
2018-04-22T13:42:57.831Z,3.47
2018-04-22T13:45:24.982Z,3.93
2018-04-22T13:47:52.145Z,3.47
2018-04-22T13:50:19.297Z,3.90
2018-04-22T13:52:46.457Z,3.20
2018-04-22T13:55:12.889Z,3.50
2018-04-22T13:57:39.319Z,3.50
2018-04-22T14:00:05.750Z,3.63
2018-04-22T14:02:32.205Z,3.93
2018-04-22T14:04:58.627Z,3.60
2018-04-22T14:07:25.066Z,3.60
2018-04-22T14:09:51.504Z,3.90
2018-04-22T14:12:17.914Z,3.90
2018-04-22T14:14:44.330Z,3.50
2018-04-22T14:17:11.512Z,4.03
2018-04-22T14:19:37.917Z,3.50
2018-04-22T14:22:05.103Z,3.80
2018-04-22T14:24:31.514Z,4.00
2018-04-22T14:26:57.961Z,3.43
2018-04-22T14:29:24.382Z,4.13
2018-04-22T14:31:50.831Z,3.63
2018-04-22T14:34:17.253Z,3.57
2018-04-22T14:36:43.669Z,3.97
2018-04-22T14:39:10.108Z,4.07
2018-04-22T14:41:36.542Z,3.97
2018-04-22T14:44:16.036Z,4.47
2018-04-22T14:46:42.448Z,3.80
2018-04-22T14:49:08.886Z,3.97
2018-04-22T14:51:35.305Z,3.83
2018-04-22T14:54:01.724Z,3.97
2018-04-22T14:56:28.155Z,4.07
2018-04-22T14:58:54.572Z,4.00
2018-04-22T15:01:21.763Z,4.10
2018-04-22T15:03:48.199Z,4.10
2018-04-22T15:06:14.627Z,4.03
2018-04-22T15:08:41.040Z,4.33
2018-04-22T15:11:08.215Z,4.53
2018-04-22T15:13:34.649Z,4.20
2018-04-22T15:16:01.093Z,4.30
2018-04-22T15:18:27.519Z,4.17
2018-04-22T15:20:53.957Z,4.00
2018-04-22T15:23:20.369Z,3.80
2018-04-22T15:25:46.773Z,3.50
2018-04-22T15:28:13.211Z,3.40
2018-04-22T15:30:40.390Z,3.73
2018-04-22T15:33:06.802Z,3.63
2018-04-22T15:35:33.211Z,4.23
2018-04-22T15:37:59.653Z,4.10
2018-04-22T15:40:26.071Z,3.63
2018-04-22T15:42:52.493Z,3.90
2018-04-22T15:45:18.911Z,4.10
2018-04-22T15:47:45.443Z,4.30
2018-04-22T15:50:11.851Z,4.20
2018-04-22T15:52:38.283Z,3.90
2018-04-22T15:55:04.737Z,3.70
2018-04-22T15:57:31.169Z,4.03
2018-04-22T15:59:57.611Z,4.10
2018-04-22T16:02:24.026Z,3.80
2018-04-22T16:04:50.438Z,4.30
2018-04-22T16:07:17.619Z,3.97
2018-04-22T16:09:44.051Z,3.90
2018-04-22T16:12:10.476Z,3.80
2018-04-22T16:14:36.956Z,3.60
2018-04-22T16:17:03.378Z,3.53
2018-04-22T16:19:29.833Z,3.47
2018-04-22T16:21:56.232Z,3.80
2018-04-22T16:24:22.663Z,3.67
2018-04-22T16:26:49.091Z,4.00
2018-04-22T16:29:15.526Z,3.67
2018-04-22T16:31:41.939Z,3.67
2018-04-22T16:34:08.362Z,3.67
2018-04-22T16:36:35.517Z,3.87
2018-04-22T16:39:02.037Z,4.00
2018-04-22T16:41:29.471Z,3.90
2018-04-22T16:43:56.687Z,3.80
2018-04-22T16:46:23.127Z,3.87
2018-04-22T16:48:49.530Z,3.93
2018-04-22T16:51:15.948Z,3.70
2018-04-22T16:53:42.373Z,4.00
2018-04-22T16:56:08.791Z,3.77
2018-04-22T16:58:35.212Z,3.83
2018-04-22T17:01:01.646Z,3.73
2018-04-22T17:03:28.087Z,3.33
2018-04-22T17:05:54.571Z,3.60
2018-04-22T17:08:20.962Z,3.90
2018-04-22T17:10:47.379Z,3.73
2018-04-22T17:13:13.811Z,3.50
2018-04-22T17:15:40.246Z,3.80
2018-04-22T17:18:06.663Z,3.93
2018-04-22T17:20:33.084Z,3.77
2018-04-22T17:22:59.517Z,4.03
2018-04-22T17:25:25.925Z,3.57
2018-04-22T17:27:53.106Z,3.90
2018-04-22T17:30:19.562Z,3.37
2018-04-22T17:32:45.982Z,3.90
2018-04-22T17:35:12.409Z,3.70
2018-04-22T17:37:38.835Z,3.60
2018-04-22T17:40:05.266Z,3.63
2018-04-22T17:42:31.714Z,3.50
2018-04-22T17:44:58.149Z,3.87
2018-04-22T17:47:24.582Z,4.33
2018-04-22T17:49:51.020Z,3.97
2018-04-22T17:52:17.483Z,4.00
2018-04-22T17:54:43.904Z,4.27
2018-04-22T17:57:10.332Z,3.93
2018-04-22T17:59:36.812Z,4.00
2018-04-22T18:02:04.003Z,4.17
2018-04-22T18:04:30.425Z,3.80
2018-04-22T18:06:56.857Z,4.23
2018-04-22T18:09:23.289Z,3.67
2018-04-22T18:11:49.704Z,4.23
2018-04-22T18:14:16.873Z,4.30
2018-04-22T18:16:43.332Z,4.27
2018-04-22T18:19:09.771Z,4.00
2018-04-22T18:21:36.191Z,3.93
2018-04-22T18:24:02.629Z,4.10
2018-04-22T18:26:29.060Z,3.90
2018-04-22T18:28:55.488Z,3.80
2018-04-22T18:31:21.916Z,3.90
2018-04-22T18:33:48.396Z,3.93
2018-04-22T18:36:14.862Z,4.10
2018-04-22T18:38:41.259Z,4.00
2018-04-22T18:41:09.173Z,4.27
2018-04-22T18:43:35.596Z,4.03
2018-04-22T18:46:02.769Z,3.63
2018-04-22T18:48:29.192Z,4.37
2018-04-22T18:50:55.615Z,4.23
2018-04-22T18:53:22.032Z,4.80
2018-04-22T18:55:49.174Z,4.40
2018-04-22T18:58:15.607Z,4.30
2018-04-22T19:00:42.030Z,4.10
2018-04-22T19:03:08.449Z,5.00
2018-04-22T19:05:34.881Z,5.17
2018-04-22T19:08:01.318Z,4.97
2018-04-22T19:10:27.746Z,5.50
2018-04-22T19:12:54.159Z,6.60
2018-04-22T19:15:20.572Z,6.67
2018-04-22T19:17:46.990Z,5.97
2018-04-22T19:20:13.425Z,8.87
2018-04-22T19:22:40.598Z,7.20
2018-04-22T19:25:07.053Z,7.37
2018-04-22T19:27:33.481Z,7.27
2018-04-22T19:29:59.944Z,7.57
2018-04-22T19:32:26.379Z,7.40
2018-04-22T19:34:52.862Z,8.67
2018-04-22T19:37:19.238Z,8.30
2018-04-22T19:39:45.666Z,9.10
2018-04-22T19:42:12.157Z,9.37
2018-04-22T19:44:38.583Z,9.40
2018-04-22T19:47:05.073Z,9.53
2018-04-22T19:49:31.570Z,12.80
2018-04-22T19:51:58.008Z,11.70
2018-04-22T19:54:24.475Z,11.33
2018-04-22T19:56:50.953Z,11.07
2018-04-22T19:59:17.393Z,10.73
2018-04-22T20:01:43.847Z,10.67
2018-04-22T20:04:10.257Z,9.57
2018-04-22T20:06:36.742Z,9.17
2018-04-22T20:09:03.253Z,9.10
2018-04-22T20:11:29.734Z,8.07
2018-04-22T20:13:56.935Z,7.63
2018-04-22T20:16:23.367Z,8.40
2018-04-22T20:18:49.783Z,7.00
2018-04-22T20:21:16.211Z,6.77
2018-04-22T20:23:42.670Z,6.80
2018-04-22T20:26:09.106Z,6.37
2018-04-22T20:28:35.531Z,6.30
2018-04-22T20:31:01.957Z,6.20
2018-04-22T20:33:28.375Z,6.03
2018-04-22T20:35:54.827Z,5.63
2018-04-22T20:38:21.273Z,5.77
2018-04-22T20:40:47.701Z,5.90
2018-04-22T20:43:14.180Z,5.87
2018-04-22T20:45:40.650Z,5.53
2018-04-22T20:48:07.097Z,6.20
2018-04-22T20:50:33.562Z,5.50
2018-04-22T20:52:59.986Z,6.07
2018-04-22T20:55:26.437Z,5.97
2018-04-22T20:57:52.851Z,6.17
2018-04-22T21:00:19.302Z,5.10
2018-04-22T21:02:45.796Z,5.20
2018-04-22T21:05:12.274Z,5.47
2018-04-22T21:07:38.717Z,5.00
2018-04-22T21:10:05.223Z,5.57
2018-04-22T21:12:31.700Z,5.20
2018-04-22T21:14:58.153Z,4.90
2018-04-22T21:17:24.569Z,5.20
2018-04-22T21:19:51.016Z,5.57
2018-04-22T21:22:17.465Z,4.57
2018-04-22T21:24:43.912Z,5.63
2018-04-22T21:27:10.432Z,5.90
2018-04-22T21:29:37.630Z,5.50
2018-04-22T21:32:04.042Z,7.43
2018-04-22T21:34:31.518Z,6.60
2018-04-22T21:36:57.937Z,7.40
2018-04-22T21:39:24.364Z,7.47
2018-04-22T21:41:50.807Z,12.13
2018-04-22T21:44:17.228Z,11.53
2018-04-22T21:46:43.642Z,12.10
2018-04-22T21:49:10.816Z,18.50
2018-04-22T21:51:37.226Z,16.97
2018-04-22T21:54:03.669Z,19.47
2018-04-22T21:56:30.120Z,20.23
2018-04-22T21:58:56.600Z,14.03
2018-04-22T22:01:23.022Z,14.20
2018-04-22T22:03:49.450Z,17.27
2018-04-22T22:06:15.908Z,18.20
2018-04-22T22:08:42.326Z,13.00
2018-04-22T22:11:08.781Z,13.10
2018-04-22T22:13:35.222Z,17.40
2018-04-22T22:16:02.423Z,16.83
2018-04-22T22:18:28.875Z,11.40
2018-04-22T22:20:55.310Z,11.90
2018-04-22T22:23:21.772Z,18.33
2018-04-22T22:25:48.230Z,23.37
2018-04-22T22:28:14.662Z,20.87
2018-04-22T22:30:41.077Z,13.80
2018-04-22T22:33:07.542Z,15.07
2018-04-22T22:35:33.960Z,20.57
2018-04-22T22:38:00.407Z,17.80
2018-04-22T22:40:26.854Z,16.33
2018-04-22T22:42:53.274Z,15.80
2018-04-22T22:45:19.766Z,14.37
2018-04-22T22:47:47.689Z,14.70
2018-04-22T22:50:14.122Z,15.60
2018-04-22T22:52:40.552Z,13.93
2018-04-22T22:55:06.965Z,14.83
2018-04-22T22:57:33.412Z,13.77
2018-04-22T22:59:59.843Z,13.53
2018-04-22T23:02:26.281Z,12.40
2018-04-22T23:04:52.708Z,10.33
2018-04-22T23:07:19.164Z,11.33
2018-04-22T23:09:45.600Z,13.73
2018-04-22T23:12:12.020Z,13.03
2018-04-22T23:14:38.449Z,12.57
2018-04-22T23:17:04.858Z,14.67
2018-04-22T23:19:32.114Z,11.93
2018-04-22T23:21:58.534Z,12.63
2018-04-22T23:24:25.694Z,12.17
2018-04-22T23:26:52.856Z,13.53
2018-04-22T23:29:19.284Z,11.73
2018-04-22T23:31:45.719Z,13.30
2018-04-22T23:34:12.157Z,14.33
2018-04-22T23:36:38.616Z,13.40
2018-04-22T23:39:05.100Z,12.67
2018-04-22T23:41:31.560Z,14.07
2018-04-22T23:43:57.966Z,15.33
2018-04-22T23:46:24.370Z,13.80
2018-04-22T23:48:50.803Z,13.40
2018-04-22T23:51:17.221Z,12.97
2018-04-22T23:53:43.639Z,12.60
2018-04-22T23:56:10.057Z,9.87
2018-04-22T23:58:36.465Z,11.03
